Time;durP1;ratioP1;P1;durP2;ratioP2;P2;SDS_P1;SDS_P2;PMS_P1;PMS_P2;Temp;Humidity;BMP_temperature;BMP_pressure;BME280_temperature;BME280_humidity;BME280_pressure;Samples;Min_cycle;Max_cycle;Signal;HPM_P1;HPM_P2
2023/04/26 00:01:41;;;;;;;8.63;3.90;;;;;;;5.74;69.50;101857.44;5074475;28;20036;-62
2023/04/26 00:04:07;;;;;;;10.85;3.90;;;;;;;5.78;69.70;101863.69;5074173;28;20482;-63
2023/04/26 00:06:33;;;;;;;9.15;4.00;;;;;;;5.84;69.46;101860.50;5074105;28;20043;-63
2023/04/26 00:08:59;;;;;;;7.80;4.00;;;;;;;5.84;69.25;101864.00;5074102;28;20385;-63
2023/04/26 00:11:24;;;;;;;5.95;3.70;;;;;;;5.82;69.41;101857.78;5074055;28;20021;-63
2023/04/26 00:13:50;;;;;;;8.70;3.72;;;;;;;5.86;69.34;101853.56;5073914;28;20052;-63
2023/04/26 00:16:18;;;;;;;6.78;3.90;;;;;;;5.86;69.37;101864.06;5073909;28;20078;-62
2023/04/26 00:18:45;;;;;;;10.13;4.32;;;;;;;5.87;69.25;101871.13;5074242;28;20024;-63
2023/04/26 00:21:11;;;;;;;10.32;4.20;;;;;;;5.87;69.03;101860.63;5074147;28;20029;-63
2023/04/26 00:23:36;;;;;;;10.20;4.10;;;;;;;5.88;68.95;101863.31;5073751;28;20111;-62
2023/04/26 00:26:02;;;;;;;11.43;3.70;;;;;;;5.89;68.75;101861.59;5073630;28;20221;-63
2023/04/26 00:28:28;;;;;;;8.73;4.18;;;;;;;5.91;68.79;101862.53;5055707;28;20117;-63
2023/04/26 00:30:56;;;;;;;9.02;4.30;;;;;;;5.88;68.92;101859.81;5073794;28;20032;-63
2023/04/26 00:33:22;;;;;;;6.53;3.60;;;;;;;5.92;69.20;101856.53;5073693;28;20029;-63
2023/04/26 00:35:48;;;;;;;10.85;3.80;;;;;;;5.91;69.04;101852.06;5073331;28;20405;-63
2023/04/26 00:38:13;;;;;;;8.15;3.58;;;;;;;5.82;69.49;101857.78;5073759;28;20473;-63
2023/04/26 00:40:38;;;;;;;8.38;3.80;;;;;;;5.72;70.14;101859.06;5055703;28;20044;-63
2023/04/26 00:43:05;;;;;;;8.18;3.85;;;;;;;5.60;70.08;101862.84;5055643;28;20484;-63
2023/04/26 00:45:31;;;;;;;9.93;4.10;;;;;;;5.45;71.20;101863.03;5073389;28;20072;-63
2023/04/26 00:48:00;;;;;;;8.85;4.22;;;;;;;5.26;71.37;101867.38;5073447;28;20064;-63
2023/04/26 00:50:26;;;;;;;6.95;4.00;;;;;;;5.18;71.29;101867.81;5073436;28;20394;-63
2023/04/26 00:52:52;;;;;;;9.35;4.07;;;;;;;5.11;72.23;101858.78;5073398;28;20021;-63
2023/04/26 00:55:20;;;;;;;8.55;4.03;;;;;;;5.18;72.11;101865.19;5073282;28;20034;-64
2023/04/26 00:57:46;;;;;;;12.15;3.78;;;;;;;5.25;71.75;101868.19;5055610;28;20090;-63
2023/04/26 01:00:11;;;;;;;9.38;4.35;;;;;;;5.28;71.68;101864.84;5055377;28;20025;-63
2023/04/26 01:02:37;;;;;;;9.07;4.10;;;;;;;5.34;70.77;101859.88;5073198;28;20074;-62
2023/04/26 01:05:04;;;;;;;8.20;3.80;;;;;;;5.32;71.64;101856.31;5073179;28;20070;-62
2023/04/26 01:07:30;;;;;;;8.75;3.92;;;;;;;5.27;71.27;101855.19;5073171;28;20028;-63
2023/04/26 01:09:57;;;;;;;7.55;3.88;;;;;;;5.21;71.54;101852.25;5055292;28;20077;-63
2023/04/26 01:12:23;;;;;;;10.48;3.78;;;;;;;5.17;71.97;101859.06;5073209;28;20036;-63
2023/04/26 01:14:49;;;;;;;8.93;3.83;;;;;;;5.16;71.68;101864.25;5073100;28;20462;-61
2023/04/26 01:17:15;;;;;;;6.45;3.58;;;;;;;5.14;72.16;101865.88;5073019;28;20466;-63
2023/04/26 01:19:47;;;;;;;8.18;4.00;;;;;;;5.14;71.89;101864.19;5073022;28;20031;-63
2023/04/26 01:22:13;;;;;;;11.23;3.90;;;;;;;5.14;72.13;101863.25;5073246;28;20029;-62
2023/04/26 01:24:42;;;;;;;11.10;3.83;;;;;;;5.20;71.47;101855.72;5072854;28;20385;-63
2023/04/26 01:27:07;;;;;;;13.20;4.47;;;;;;;5.30;71.95;101860.56;5072737;28;20028;-63
2023/04/26 01:29:34;;;;;;;10.35;3.72;;;;;;;5.41;70.99;101863.72;5055094;28;20381;-62
2023/04/26 01:31:59;;;;;;;9.98;3.80;;;;;;;5.45;70.17;101863.03;5073067;28;20469;-63
2023/04/26 01:34:25;;;;;;;7.72;3.80;;;;;;;5.50;70.07;101862.41;5072859;28;20558;-63
2023/04/26 01:36:51;;;;;;;7.00;3.80;;;;;;;5.41;70.18;101867.22;5072674;28;20553;-64
2023/04/26 01:39:16;;;;;;;11.90;3.88;;;;;;;5.17;70.51;101868.66;5072862;28;20032;-62
2023/04/26 01:41:41;;;;;;;8.95;3.70;;;;;;;5.02;71.31;101877.56;5072818;28;20371;-62
2023/04/26 01:44:07;;;;;;;9.93;3.90;;;;;;;4.90;71.63;101869.09;5072575;28;20067;-63
2023/04/26 01:46:32;;;;;;;8.15;4.22;;;;;;;4.90;71.66;101868.19;5074036;28;20027;-63
2023/04/26 01:48:58;;;;;;;8.95;4.05;;;;;;;4.93;71.47;101870.97;5076908;28;20028;-63
2023/04/26 01:51:23;;;;;;;13.05;4.00;;;;;;;4.93;71.30;101868.34;5042588;28;20025;-63
2023/04/26 01:53:49;;;;;;;7.75;3.83;;;;;;;4.92;71.94;101870.03;5077040;28;20647;-63
2023/04/26 01:56:15;;;;;;;9.35;3.92;;;;;;;4.88;71.44;101861.97;5058734;28;20385;-63
2023/04/26 01:58:40;;;;;;;14.50;4.05;;;;;;;4.75;72.60;101868.31;5076528;28;20473;-63
2023/04/26 02:01:08;;;;;;;8.32;4.30;;;;;;;4.67;73.01;101867.03;5076639;28;20025;-63
2023/04/26 02:03:34;;;;;;;13.27;4.15;;;;;;;4.55;73.74;101872.53;5076612;28;20021;-62
2023/04/26 02:06:00;;;;;;;12.40;4.38;;;;;;;4.42;74.17;101867.50;5076479;28;20040;-63
2023/04/26 02:08:26;;;;;;;9.43;4.43;;;;;;;4.28;74.08;101874.59;5076569;28;20104;-63
2023/04/26 02:10:51;;;;;;;8.43;4.25;;;;;;;4.18;75.17;101872.31;5076474;28;20029;-63
2023/04/26 02:13:18;;;;;;;9.10;4.40;;;;;;;4.19;75.16;101877.63;5076556;28;20547;-63
2023/04/26 02:15:47;;;;;;;11.23;4.22;;;;;;;4.28;74.32;101874.59;5058624;28;20434;-62
2023/04/26 02:18:13;;;;;;;10.43;4.85;;;;;;;4.38;74.30;101869.06;5076350;28;20028;-63
2023/04/26 02:20:43;;;;;;;8.40;4.05;;;;;;;4.43;74.06;101866.66;5076269;28;20497;-63
2023/04/26 02:23:09;;;;;;;12.75;4.47;;;;;;;4.48;74.25;101855.59;5076486;28;20025;-63
2023/04/26 02:25:35;;;;;;;9.40;4.20;;;;;;;4.53;74.05;101861.97;5075907;28;20499;-63
2023/04/26 02:28:00;;;;;;;7.88;3.78;;;;;;;4.53;73.62;101861.97;5075920;28;20029;-63
2023/04/26 02:30:27;;;;;;;8.27;3.97;;;;;;;4.52;73.77;101865.41;5076047;28;20555;-63
2023/04/26 02:32:55;;;;;;;9.90;4.20;;;;;;;4.43;73.41;101853.59;5076265;28;20025;-62
2023/04/26 02:35:21;;;;;;;10.63;4.10;;;;;;;4.36;73.78;101857.59;5075733;28;20574;-63
2023/04/26 02:37:47;;;;;;;8.10;4.35;;;;;;;4.30;73.69;101857.28;5041433;28;20056;-63
2023/04/26 02:40:14;;;;;;;13.70;5.03;;;;;;;4.30;73.96;101853.78;5075846;28;20024;-63
2023/04/26 02:42:39;;;;;;;9.25;4.45;;;;;;;4.29;73.59;101863.34;5058009;28;20082;-62
2023/04/26 02:45:06;;;;;;;13.20;4.47;;;;;;;4.22;74.47;101856.88;5075866;28;20036;-63
2023/04/26 02:47:31;;;;;;;11.90;4.45;;;;;;;4.23;73.67;101853.44;5075811;28;20025;-62
2023/04/26 02:49:57;;;;;;;8.85;4.53;;;;;;;4.21;73.58;101857.69;5058180;28;20074;-62
2023/04/26 02:52:23;;;;;;;9.88;4.13;;;;;;;4.17;73.46;101860.97;5075623;28;20023;-62
2023/04/26 02:54:48;;;;;;;13.13;4.70;;;;;;;4.11;74.28;101857.13;5075600;28;20512;-63
2023/04/26 02:57:13;;;;;;;9.95;4.40;;;;;;;4.12;73.89;101856.31;5074907;28;20068;-62
2023/04/26 02:59:39;;;;;;;13.43;4.70;;;;;;;4.14;74.20;101858.19;5056730;28;20028;-62
2023/04/26 03:02:04;;;;;;;15.23;4.85;;;;;;;4.13;74.19;101850.25;5057452;28;20029;-62
2023/04/26 03:04:34;;;;;;;14.85;4.70;;;;;;;4.04;74.14;101845.44;5075445;28;20044;-67
2023/04/26 03:07:02;;;;;;;10.52;4.95;;;;;;;3.96;74.81;101842.41;5075715;28;20028;-62
2023/04/26 03:09:27;;;;;;;12.10;5.20;;;;;;;3.92;75.08;101847.41;5075429;28;20036;-63
2023/04/26 03:11:52;;;;;;;8.05;4.78;;;;;;;3.84;75.68;101846.97;5075311;28;20036;-63
2023/04/26 03:14:18;;;;;;;15.02;5.38;;;;;;;3.75;75.94;101850.00;5075150;28;20029;-63
2023/04/26 03:16:43;;;;;;;12.90;5.15;;;;;;;3.76;76.23;101850.91;5057227;28;20025;-63
2023/04/26 03:19:09;;;;;;;8.60;4.90;;;;;;;3.73;76.34;101838.59;5075146;28;20035;-63
2023/04/26 03:21:34;;;;;;;14.05;5.20;;;;;;;3.73;77.09;101849.03;5057239;28;20024;-63
2023/04/26 03:24:00;;;;;;;9.90;5.47;;;;;;;3.68;77.11;101847.91;5074943;28;20036;-62
2023/04/26 03:26:25;;;;;;;10.93;5.20;;;;;;;3.67;77.00;101845.19;5074928;28;20028;-62
2023/04/26 03:28:52;;;;;;;11.10;5.50;;;;;;;3.71;76.98;101844.53;5075128;28;20114;-63
2023/04/26 03:31:19;;;;;;;9.32;5.00;;;;;;;3.78;76.22;101841.44;5074942;28;20416;-63
2023/04/26 03:33:45;;;;;;;12.40;5.15;;;;;;;3.87;75.55;101830.59;5074827;28;20032;-63
2023/04/26 03:36:10;;;;;;;13.60;5.50;;;;;;;3.88;75.38;101835.88;5056573;28;20057;-63
2023/04/26 03:38:35;;;;;;;10.05;5.35;;;;;;;3.93;75.54;101834.41;5074812;28;20069;-63
2023/04/26 03:41:01;;;;;;;11.10;4.85;;;;;;;3.88;75.62;101837.59;5056928;28;20541;-62
2023/04/26 03:43:26;;;;;;;9.85;5.05;;;;;;;3.81;75.59;101833.75;5074602;28;20083;-62
2023/04/26 03:45:51;;;;;;;13.00;5.38;;;;;;;3.83;75.20;101833.84;5056672;28;20528;-63
2023/04/26 03:48:17;;;;;;;11.60;5.70;;;;;;;3.86;75.57;101828.78;5074630;28;20036;-63
2023/04/26 03:50:43;;;;;;;15.88;5.50;;;;;;;3.87;75.40;101830.59;5074582;28;20424;-62
2023/04/26 03:53:10;;;;;;;9.63;4.95;;;;;;;3.92;75.46;101829.09;5074525;28;20041;-63
2023/04/26 03:55:36;;;;;;;13.40;5.57;;;;;;;3.97;74.74;101835.47;5074464;28;20485;-63
2023/04/26 03:58:02;;;;;;;11.07;5.50;;;;;;;3.98;75.05;101834.66;5074375;28;20111;-63
2023/04/26 04:00:27;;;;;;;10.68;5.25;;;;;;;3.95;74.21;101843.25;5074503;28;20128;-63
2023/04/26 04:02:53;;;;;;;11.02;5.57;;;;;;;3.94;73.80;101838.84;5074623;28;20107;-62
2023/04/26 04:05:18;;;;;;;12.35;5.68;;;;;;;3.90;74.82;101841.22;5056199;28;20393;-63
2023/04/26 04:07:44;;;;;;;13.65;5.93;;;;;;;3.82;74.76;101837.28;5056643;28;20024;-62
2023/04/26 04:10:09;;;;;;;10.95;5.35;;;;;;;3.70;76.32;101835.78;5073726;28;20451;-62
2023/04/26 04:12:35;;;;;;;11.77;5.50;;;;;;;3.64;76.21;101832.84;5074332;28;20032;-63
2023/04/26 04:15:01;;;;;;;13.02;5.80;;;;;;;3.60;76.19;101841.34;5074148;28;20029;-63
2023/04/26 04:17:27;;;;;;;9.77;5.38;;;;;;;3.62;77.28;101847.53;5056229;28;20422;-62
2023/04/26 04:19:52;;;;;;;10.23;5.57;;;;;;;3.65;76.83;101846.81;5073902;28;20091;-63
2023/04/26 04:22:18;;;;;;;10.27;5.40;;;;;;;3.72;76.66;101838.47;5073903;28;20028;-62
2023/04/26 04:24:43;;;;;;;11.85;5.75;;;;;;;3.66;76.00;101833.81;5055845;28;20370;-63
2023/04/26 04:27:09;;;;;;;13.30;5.95;;;;;;;3.63;76.17;101844.09;5073976;28;20543;-62
2023/04/26 04:29:35;;;;;;;12.63;6.20;;;;;;;3.63;76.44;101837.97;5073946;28;20462;-62
2023/04/26 04:32:01;;;;;;;13.95;5.68;;;;;;;3.62;76.87;101841.41;5073558;28;20028;-62
2023/04/26 04:34:26;;;;;;;12.05;5.82;;;;;;;3.61;76.43;101843.13;5073626;28;20097;-63
2023/04/26 04:36:51;;;;;;;11.32;6.18;;;;;;;3.61;76.26;101839.63;5073215;28;20052;-63
2023/04/26 04:39:17;;;;;;;13.18;6.15;;;;;;;3.78;76.19;101851.00;5073490;28;20378;-62
2023/04/26 04:41:48;;;;;;;10.32;5.95;;;;;;;3.86;75.94;101850.59;5073476;28;20024;-63
2023/04/26 04:44:15;;;;;;;12.30;5.67;;;;;;;3.90;75.83;101846.44;5073243;28;20117;-62
2023/04/26 04:46:41;;;;;;;11.98;5.78;;;;;;;3.87;76.11;101854.09;5073305;28;20036;-62
2023/04/26 04:49:08;;;;;;;10.85;5.72;;;;;;;3.85;76.16;101859.22;5073255;28;20047;-63
2023/04/26 04:51:33;;;;;;;13.55;6.18;;;;;;;3.83;76.07;101855.66;5073151;28;20470;-63
2023/04/26 04:54:08;;;;;;;9.98;5.82;;;;;;;3.84;76.54;101857.44;5073243;28;20070;-63
2023/04/26 04:56:34;;;;;;;12.82;6.10;;;;;;;3.85;76.98;101861.84;5055072;28;20052;-62
2023/04/26 04:58:59;;;;;;;11.60;6.40;;;;;;;3.81;77.55;101861.59;5073111;28;20462;-62
2023/04/26 05:01:25;;;;;;;12.70;6.30;;;;;;;3.79;78.04;101877.22;5055219;28;20458;-62
2023/04/26 05:03:50;;;;;;;11.85;5.82;;;;;;;3.86;78.00;101873.22;5073267;28;20035;-62
2023/04/26 05:06:17;;;;;;;17.63;6.97;;;;;;;3.99;77.86;101868.75;5073071;28;20420;-62
2023/04/26 05:08:42;;;;;;;11.70;5.93;;;;;;;4.10;77.12;101871.03;5073102;28;20059;-62
2023/04/26 05:11:08;;;;;;;14.38;6.22;;;;;;;4.27;77.03;101868.47;5073294;28;20107;-62
2023/04/26 05:13:33;;;;;;;14.10;6.30;;;;;;;4.37;76.92;101880.34;5073163;28;20089;-63
2023/04/26 05:15:59;;;;;;;12.45;6.53;;;;;;;4.41;76.48;101868.28;5072945;28;20084;-62
2023/04/26 05:18:24;;;;;;;13.10;6.57;;;;;;;4.48;77.82;101865.19;5072932;28;20561;-61
2023/04/26 05:20:50;;;;;;;17.73;6.28;;;;;;;4.58;77.77;101874.41;5072277;28;20043;-62
2023/04/26 05:23:16;;;;;;;12.27;6.53;;;;;;;4.68;77.10;101868.84;5072928;28;20029;-62
2023/04/26 05:25:41;;;;;;;10.90;6.38;;;;;;;4.88;76.94;101880.28;5072764;28;20470;-62
2023/04/26 05:28:11;;;;;;;10.30;6.60;;;;;;;5.07;76.61;101872.56;5072370;28;20059;-62
2023/04/26 05:30:37;;;;;;;16.63;6.75;;;;;;;5.14;75.73;101874.66;5072592;28;20052;-62
2023/04/26 05:33:03;;;;;;;12.52;6.38;;;;;;;5.17;75.24;101879.13;5038264;28;20036;-62
2023/04/26 05:35:29;;;;;;;15.45;7.32;;;;;;;5.13;76.06;101871.94;5038422;28;20110;-62
2023/04/26 05:37:54;;;;;;;16.45;7.40;;;;;;;5.09;75.23;101875.22;5072713;28;20025;-62
2023/04/26 05:40:19;;;;;;;14.65;7.00;;;;;;;5.03;75.80;101874.13;5072697;28;20029;-62
2023/04/26 05:42:45;;;;;;;20.77;7.75;;;;;;;4.95;75.04;101872.81;5072771;28;20108;-62
2023/04/26 05:45:11;;;;;;;15.60;7.40;;;;;;;4.91;76.00;101883.06;5054822;28;20020;-62
2023/04/26 05:47:37;;;;;;;13.07;7.13;;;;;;;4.92;76.40;101888.38;5072598;28;20036;-62
2023/04/26 05:50:03;;;;;;;17.15;7.05;;;;;;;5.01;76.49;101886.25;5072880;28;20063;-63
2023/04/26 05:52:28;;;;;;;13.45;7.18;;;;;;;5.07;76.25;101890.88;5072887;28;20036;-63
2023/04/26 05:54:53;;;;;;;12.70;7.10;;;;;;;5.13;76.51;101885.94;5054696;28;20063;-62
2023/04/26 05:57:19;;;;;;;14.13;7.50;;;;;;;5.14;77.08;101885.13;5072362;28;20421;-62
2023/04/26 05:59:45;;;;;;;21.23;7.95;;;;;;;5.24;76.35;101887.38;5054522;28;20067;-63
2023/04/26 06:02:10;;;;;;;17.05;7.68;;;;;;;5.47;77.16;101884.97;5072522;28;20029;-63
2023/04/26 06:04:36;;;;;;;17.10;8.15;;;;;;;5.67;76.71;101878.94;5072502;28;20021;-62
2023/04/26 06:07:01;;;;;;;16.85;7.45;;;;;;;5.97;76.36;101878.63;5072397;28;20490;-62
2023/04/26 06:09:31;;;;;;;16.67;7.75;;;;;;;6.17;75.10;101890.94;5072800;28;20028;-63
2023/04/26 06:11:56;;;;;;;20.20;7.72;;;;;;;6.27;76.02;101881.72;5054499;28;20490;-62
2023/04/26 06:14:22;;;;;;;16.30;8.10;;;;;;;6.44;75.18;101883.38;5072344;28;20112;-62
2023/04/26 06:16:47;;;;;;;15.68;8.10;;;;;;;6.55;74.85;101885.56;5072471;28;20474;-62
2023/04/26 06:19:13;;;;;;;18.70;8.70;;;;;;;6.79;74.10;101881.38;5072355;28;20055;-62
2023/04/26 06:21:38;;;;;;;14.18;7.65;;;;;;;7.01;73.39;101884.06;5054589;28;20066;-62
2023/04/26 06:24:04;;;;;;;17.10;8.38;;;;;;;7.23;73.71;101888.47;5054211;28;20103;-62
2023/04/26 06:26:31;;;;;;;18.25;9.00;;;;;;;7.27;73.86;101892.13;5072079;28;20167;-62
2023/04/26 06:28:56;;;;;;;21.70;8.40;;;;;;;7.29;73.25;101890.47;5072122;28;20036;-63
2023/04/26 06:31:21;;;;;;;15.80;8.40;;;;;;;7.28;73.13;101893.97;5072307;28;20028;-63
2023/04/26 06:33:47;;;;;;;16.58;8.82;;;;;;;7.22;73.57;101885.78;5075315;28;20028;-61
2023/04/26 06:36:13;;;;;;;17.42;8.32;;;;;;;7.22;73.22;101897.22;5075779;28;20045;-61
2023/04/26 06:38:38;;;;;;;14.15;7.90;;;;;;;7.20;74.25;101900.63;5076140;28;20033;-63
2023/04/26 06:41:04;;;;;;;16.88;8.68;;;;;;;7.24;74.85;101899.91;5075801;28;20478;-62
2023/04/26 06:43:29;;;;;;;15.63;7.88;;;;;;;7.32;74.68;101903.72;5075771;28;20025;-62
2023/04/26 06:45:55;;;;;;;19.40;8.38;;;;;;;7.49;75.39;101905.34;5057985;28;20027;-63
2023/04/26 06:48:20;;;;;;;16.55;7.30;;;;;;;7.69;73.86;101911.38;5075796;28;20112;-61
2023/04/26 06:50:46;;;;;;;14.82;7.43;;;;;;;7.88;73.34;101915.63;5075683;28;20097;-62
2023/04/26 06:53:11;;;;;;;11.52;6.60;;;;;;;7.99;72.49;101903.78;5075629;28;20059;-62
2023/04/26 06:55:36;;;;;;;13.93;7.10;;;;;;;8.03;73.52;101904.78;5075583;28;20029;-63
2023/04/26 06:58:02;;;;;;;13.38;6.85;;;;;;;8.07;72.93;101906.69;5075496;28;20017;-62
2023/04/26 07:00:29;;;;;;;15.13;7.28;;;;;;;8.14;72.34;101906.09;5075432;28;20027;-62
2023/04/26 07:02:54;;;;;;;12.98;6.60;;;;;;;8.16;72.06;101914.06;5075662;28;20423;-62
2023/04/26 07:05:20;;;;;;;13.85;6.53;;;;;;;8.16;72.46;101901.78;5057366;28;20034;-62
2023/04/26 07:07:45;;;;;;;15.55;6.88;;;;;;;8.24;72.57;101905.59;5075379;28;20024;-62
2023/04/26 07:10:12;;;;;;;17.13;6.55;;;;;;;8.33;72.34;101906.78;5075294;28;20025;-62
2023/04/26 07:12:38;;;;;;;12.02;6.65;;;;;;;8.40;71.33;101906.22;5057419;28;20025;-62
2023/04/26 07:15:05;;;;;;;11.27;6.13;;;;;;;8.44;70.39;101905.47;5075075;28;20474;-62
2023/04/26 07:17:31;;;;;;;13.95;6.55;;;;;;;8.56;70.55;101912.91;5075083;28;20401;-62
2023/04/26 07:19:57;;;;;;;17.35;6.55;;;;;;;8.54;69.59;101902.31;5075135;28;20075;-62
2023/04/26 07:22:23;;;;;;;12.90;6.70;;;;;;;8.60;69.76;101910.44;5075403;28;20135;-62
2023/04/26 07:24:48;;;;;;;14.18;5.97;;;;;;;8.57;69.06;101912.09;5074989;28;20466;-62
2023/04/26 07:27:13;;;;;;;17.08;6.10;;;;;;;8.68;69.94;101908.09;5074991;28;20070;-62
2023/04/26 07:29:39;;;;;;;11.93;5.80;;;;;;;8.90;68.60;101915.88;5074923;28;20036;-62
2023/04/26 07:32:05;;;;;;;13.98;5.40;;;;;;;9.08;67.41;101910.38;5074915;28;20432;-62
2023/04/26 07:34:31;;;;;;;11.63;5.32;;;;;;;9.23;66.41;101902.97;5074936;28;20032;-62
2023/04/26 07:36:56;;;;;;;10.60;4.30;;;;;;;9.31;63.98;101905.84;5074668;28;20045;-62
2023/04/26 07:39:23;;;;;;;11.48;4.88;;;;;;;9.43;64.32;101903.63;5074815;28;20427;-62
2023/04/26 07:41:48;;;;;;;13.02;5.07;;;;;;;9.61;63.71;101905.06;5074813;28;20067;-63
2023/04/26 07:44:14;;;;;;;18.17;4.43;;;;;;;9.76;61.53;101900.25;5073964;28;20021;-63
2023/04/26 07:46:39;;;;;;;14.88;5.10;;;;;;;9.88;62.08;101900.63;5074947;28;20029;-62
2023/04/26 07:49:05;;;;;;;11.90;4.47;;;;;;;9.78;61.62;101895.91;5074685;28;20033;-63
2023/04/26 07:51:30;;;;;;;8.57;4.40;;;;;;;9.88;61.89;101891.81;5056760;28;20394;-62
2023/04/26 07:53:56;;;;;;;10.18;4.13;;;;;;;10.00;62.25;101895.72;5056885;28;20033;-62
2023/04/26 07:56:25;;;;;;;11.02;4.10;;;;;;;10.20;60.69;101898.06;5074479;28;20032;-62
2023/04/26 07:58:51;;;;;;;11.65;3.42;;;;;;;10.42;57.81;101900.50;5056919;28;20045;-62
2023/04/26 08:01:17;;;;;;;9.52;3.25;;;;;;;10.50;56.84;101903.34;5074357;28;20035;-63
2023/04/26 08:03:43;;;;;;;6.97;3.20;;;;;;;10.67;56.47;101909.13;5074554;28;20025;-62
2023/04/26 08:06:08;;;;;;;8.40;3.08;;;;;;;10.93;54.91;101907.16;5074222;28;20031;-63
2023/04/26 08:08:41;;;;;;;6.72;2.60;;;;;;;11.25;54.50;101915.91;5074204;28;20020;-62
2023/04/26 08:11:08;;;;;;;7.55;2.20;;;;;;;11.48;52.57;101924.44;5074101;28;20465;-61
2023/04/26 08:13:34;;;;;;;6.45;2.22;;;;;;;11.53;52.89;101914.84;5074130;28;20416;-63
2023/04/26 08:15:59;;;;;;;6.43;3.55;;;;;;;11.44;52.12;101918.16;5073988;28;20032;-63
2023/04/26 08:18:25;;;;;;;10.23;2.70;;;;;;;11.43;52.59;101915.47;5073929;28;20033;-63
2023/04/26 08:20:51;;;;;;;9.30;2.80;;;;;;;11.60;52.36;101915.88;5073929;28;20025;-62
2023/04/26 08:23:18;;;;;;;6.63;2.75;;;;;;;11.70;50.52;101918.78;5074135;28;20032;-63
2023/04/26 08:25:43;;;;;;;8.07;2.03;;;;;;;11.67;49.95;101920.47;5056221;28;20028;-62
2023/04/26 08:28:13;;;;;;;7.95;2.40;;;;;;;11.69;49.62;101918.72;5073747;28;20089;-62
2023/04/26 08:30:39;;;;;;;7.40;2.58;;;;;;;11.67;49.13;101910.75;5073637;28;20447;-63
2023/04/26 08:33:04;;;;;;;6.18;2.40;;;;;;;11.45;47.23;101909.38;5056174;28;20119;-64
2023/04/26 08:35:29;;;;;;;4.47;2.22;;;;;;;11.45;48.90;101905.81;5073537;28;20065;-63
2023/04/26 08:37:55;;;;;;;7.15;2.67;;;;;;;11.51;48.94;101916.56;5056045;28;20047;-62
2023/04/26 08:40:24;;;;;;;4.95;1.98;;;;;;;11.64;49.03;101920.38;5073468;28;20459;-63
2023/04/26 08:42:51;;;;;;;9.50;2.13;;;;;;;11.60;48.12;101905.28;5073525;28;20024;-62
2023/04/26 08:45:17;;;;;;;6.80;2.60;;;;;;;11.85;50.19;101917.38;5073620;28;20079;-63
2023/04/26 08:47:48;;;;;;;4.25;2.17;;;;;;;11.99;48.51;101910.63;5073405;28;20112;-62
2023/04/26 08:50:15;;;;;;;8.82;2.40;;;;;;;12.05;48.57;101908.13;5073478;28;20028;-62
2023/04/26 08:52:42;;;;;;;8.68;2.50;;;;;;;12.00;47.52;101907.13;5055807;28;20036;-62
2023/04/26 08:55:09;;;;;;;7.63;2.63;;;;;;;11.80;48.43;101901.34;5073452;28;20039;-63
2023/04/26 08:57:35;;;;;;;11.07;2.50;;;;;;;11.66;49.19;101908.97;5073078;28;20086;-62
2023/04/26 09:00:04;;;;;;;8.05;2.90;;;;;;;11.50;49.50;101906.81;5073172;28;20500;-62
2023/04/26 09:02:30;;;;;;;6.13;2.72;;;;;;;11.46;49.43;101900.56;5073487;28;20435;-62
2023/04/26 09:04:55;;;;;;;14.30;3.13;;;;;;;11.42;50.46;101903.09;5073062;28;20071;-61
2023/04/26 09:07:32;;;;;;;8.55;3.00;;;;;;;11.60;50.62;101900.00;5073094;28;20029;-61
2023/04/26 09:09:58;;;;;;;5.32;2.90;;;;;;;12.06;49.75;101901.97;5073314;28;20016;-62
2023/04/26 09:12:24;;;;;;;7.53;3.00;;;;;;;12.41;48.04;101889.44;5073161;28;20035;-62
2023/04/26 09:14:50;;;;;;;7.15;3.15;;;;;;;12.53;46.69;101887.03;5055121;28;20478;-62
2023/04/26 09:17:31;;;;;;;8.32;3.28;;;;;;;13.05;47.83;101889.75;5073009;28;20063;-62
2023/04/26 09:19:58;;;;;;;9.25;3.03;;;;;;;13.31;45.73;101889.31;5073203;28;20362;-61
2023/04/26 09:22:41;;;;;;;6.80;2.97;;;;;;;13.65;46.34;101878.34;5073215;28;20067;-63
2023/04/26 09:25:07;;;;;;;8.00;3.08;;;;;;;13.82;44.01;101883.91;5055184;28;20544;-63
2023/04/26 09:27:42;;;;;;;6.43;3.08;;;;;;;13.97;44.29;101880.56;5072714;28;20116;-63
2023/04/26 09:30:14;;;;;;;8.73;3.33;;;;;;;14.00;45.72;101883.25;5072832;28;20473;-63
2023/04/26 09:32:52;;;;;;;;;;;;;;;14.09;47.29;101872.78;5073696;28;20028;-63
2023/04/26 09:35:22;;;;;;;9.35;2.90;;;;;;;13.85;46.19;101881.28;5072874;28;19916;-63
2023/04/26 09:38:00;;;;;;;9.95;3.20;;;;;;;13.65;45.51;101882.78;5073200;28;20032;-62
2023/04/26 09:40:28;;;;;;;8.02;2.70;;;;;;;13.55;44.77;101888.81;5072799;28;20416;-62
2023/04/26 09:42:58;;;;;;;6.30;2.90;;;;;;;13.34;45.59;101889.38;5072738;28;20465;-62
2023/04/26 09:45:25;;;;;;;7.05;2.70;;;;;;;13.19;44.18;101896.19;5054921;28;20052;-62
2023/04/26 09:47:51;;;;;;;8.35;2.75;;;;;;;13.02;44.50;101893.25;5072896;28;20107;-62
2023/04/26 09:50:30;;;;;;;8.30;2.83;;;;;;;12.84;45.53;101887.59;5072914;28;20025;-62
2023/04/26 09:52:56;;;;;;;7.20;2.50;;;;;;;12.76;44.72;101895.44;5072665;28;20051;-62
2023/04/26 09:55:27;;;;;;;5.30;2.60;;;;;;;12.72;45.90;101890.94;5072551;28;20029;-63
2023/04/26 09:57:53;;;;;;;8.27;2.92;;;;;;;12.63;44.43;101882.78;5072453;28;20020;-63
2023/04/26 10:00:20;;;;;;;6.25;2.80;;;;;;;12.54;44.97;101883.50;5054593;28;20040;-63
2023/04/26 10:02:46;;;;;;;6.65;2.85;;;;;;;12.35;46.03;101880.47;5072580;28;20032;-63
2023/04/26 10:05:11;;;;;;;6.47;2.95;;;;;;;12.41;48.02;101889.44;5054730;28;20031;-63
2023/04/26 10:07:37;;;;;;;8.55;3.22;;;;;;;12.39;47.01;101891.19;5074091;28;20028;-63
2023/04/26 10:10:04;;;;;;;7.22;3.00;;;;;;;12.42;45.89;101885.03;5076483;28;20025;-63
2023/04/26 10:12:30;;;;;;;6.57;2.92;;;;;;;12.39;45.79;101884.97;5076449;28;20073;-63
2023/04/26 10:14:56;;;;;;;6.18;3.05;;;;;;;12.29;46.92;101881.25;5076552;28;20029;-63
2023/04/26 10:17:22;;;;;;;10.07;3.08;;;;;;;12.20;47.03;101881.94;5076523;28;20073;-62
2023/04/26 10:19:51;;;;;;;8.90;3.05;;;;;;;12.12;46.53;101887.94;5076266;28;20378;-62
2023/04/26 10:22:24;;;;;;;8.32;3.20;;;;;;;12.05;46.34;101894.88;5071392;28;20070;-62
2023/04/26 10:24:52;;;;;;;6.38;3.20;;;;;;;11.93;47.14;101890.19;5076312;28;20122;-62
2023/04/26 10:27:44;;;;;;;8.02;3.38;;;;;;;11.89;47.68;101891.00;5058148;28;20492;-62
2023/04/26 10:30:11;;;;;;;8.05;3.13;;;;;;;11.95;47.33;101885.84;5075855;28;20028;-62
2023/04/26 10:32:54;;;;;;;10.80;3.35;;;;;;;11.98;46.98;101890.28;5076200;28;20025;-63
2023/04/26 10:35:21;;;;;;;8.60;3.00;;;;;;;11.84;46.13;101886.47;5075857;28;20106;-63
2023/04/26 10:37:59;;;;;;;10.25;3.17;;;;;;;11.80;46.73;101882.81;5058360;28;20036;-62
2023/04/26 10:40:39;;;;;;;7.57;3.40;;;;;;;11.84;46.81;101879.41;5075762;28;20033;-62
2023/04/26 10:43:07;;;;;;;9.27;3.08;;;;;;;11.78;46.27;101880.16;5058021;28;20036;-62
2023/04/26 10:45:33;;;;;;;7.03;2.90;;;;;;;11.85;45.46;101880.28;5075231;28;20064;-62
2023/04/26 10:48:17;;;;;;;5.40;3.00;;;;;;;11.92;46.61;101874.28;5075230;28;20131;-62
2023/04/26 10:51:01;;;;;;;6.65;2.63;;;;;;;11.92;46.62;101877.81;5075985;28;20412;-63
2023/04/26 10:53:28;;;;;;;11.10;2.83;;;;;;;11.93;44.57;101871.66;5075910;28;20028;-63
2023/04/26 10:55:55;;;;;;;8.15;2.97;;;;;;;11.97;44.68;101865.56;5075852;28;20078;-62
2023/04/26 10:58:34;;;;;;;7.22;2.70;;;;;;;12.07;45.52;101865.75;5075407;28;20494;-62
2023/04/26 11:01:03;;;;;;;5.90;3.00;;;;;;;12.21;44.29;101869.59;5075407;28;20031;-62
2023/04/26 11:03:30;;;;;;;7.88;3.20;;;;;;;12.34;44.90;101876.94;5075493;28;20031;-62
2023/04/26 11:05:56;;;;;;;6.15;3.10;;;;;;;12.44;45.43;101873.59;5075334;28;20047;-63
2023/04/26 11:08:30;;;;;;;7.97;3.10;;;;;;;12.49;44.63;101877.22;5075318;28;20145;-63
2023/04/26 11:11:09;;;;;;;9.57;3.28;;;;;;;12.62;44.36;101869.50;5075339;28;20040;-62
2023/04/26 11:13:40;;;;;;;9.20;3.30;;;;;;;12.73;43.50;101865.31;5075233;28;20500;-63
2023/04/26 11:16:10;;;;;;;8.63;3.13;;;;;;;13.03;44.54;101867.59;5057882;28;20024;-62
2023/04/26 11:18:37;;;;;;;7.68;3.00;;;;;;;13.57;44.34;101864.06;5056467;28;20027;-62
2023/04/26 11:21:04;;;;;;;8.02;3.47;;;;;;;13.81;41.53;101854.66;5075188;28;20416;-63
2023/04/26 11:23:30;;;;;;;9.63;3.17;;;;;;;14.01;41.65;101856.72;5075323;28;20032;-63
2023/04/26 11:25:57;;;;;;;7.70;3.22;;;;;;;14.16;42.78;101853.34;5075070;28;20021;-62